createdAt,value
2018-03-28T00:00:12.454Z,78.10
2018-03-28T00:02:39.465Z,78.10
2018-03-28T00:05:08.543Z,78.10
2018-03-28T00:07:35.573Z,78.10
2018-03-28T00:10:02.615Z,77.60
2018-03-28T00:12:29.654Z,77.70
2018-03-28T00:14:56.734Z,77.50
2018-03-28T00:17:23.737Z,77.10
2018-03-28T00:19:50.750Z,77.90
2018-03-28T00:22:18.706Z,78.40
2018-03-28T00:24:45.825Z,77.40
2018-03-28T00:27:12.853Z,78.00
2018-03-28T00:29:39.875Z,78.50
2018-03-28T00:32:07.653Z,80.00
2018-03-28T00:34:34.717Z,79.90
2018-03-28T00:37:01.729Z,79.80
2018-03-28T00:39:29.506Z,79.00
2018-03-28T00:41:56.517Z,79.00
2018-03-28T00:44:23.625Z,78.80
2018-03-28T00:46:52.318Z,80.00
2018-03-28T00:49:19.356Z,79.90
2018-03-28T00:51:46.382Z,79.60
2018-03-28T00:54:14.194Z,79.70
2018-03-28T00:56:41.201Z,79.70
2018-03-28T00:59:08.194Z,79.40
2018-03-28T01:01:35.265Z,79.50
2018-03-28T01:04:02.405Z,79.00
2018-03-28T01:06:29.469Z,80.30
2018-03-28T01:08:57.379Z,79.50
2018-03-28T01:11:24.390Z,79.50
2018-03-28T01:13:53.254Z,80.20
2018-03-28T01:16:21.045Z,79.60
2018-03-28T01:18:48.805Z,79.70
2018-03-28T01:21:15.884Z,79.70
2018-03-28T01:23:43.006Z,79.10
2018-03-28T01:26:10.808Z,78.10
2018-03-28T01:28:37.880Z,78.00
2018-03-28T01:31:04.925Z,78.90
2018-03-28T01:33:31.970Z,79.70
2018-03-28T01:35:59.017Z,80.30
2018-03-28T01:38:26.086Z,79.90
2018-03-28T01:40:53.138Z,78.80
2018-03-28T01:43:20.178Z,79.50
2018-03-28T01:45:47.178Z,79.90
2018-03-28T01:48:14.160Z,79.50
2018-03-28T01:50:41.229Z,79.50
2018-03-28T01:53:08.343Z,78.80
2018-03-28T01:55:35.367Z,79.60
2018-03-28T01:58:02.418Z,79.30
2018-03-28T02:00:30.152Z,79.20
2018-03-28T02:02:57.978Z,79.00
2018-03-28T02:05:24.981Z,79.00
2018-03-28T02:07:52.397Z,79.00
2018-03-28T02:10:19.446Z,78.70
2018-03-28T02:12:46.462Z,80.20
2018-03-28T02:15:13.497Z,79.50
2018-03-28T02:17:40.616Z,78.20
2018-03-28T02:20:07.683Z,78.90
2018-03-28T02:22:34.797Z,78.70
2018-03-28T02:25:02.678Z,78.40
2018-03-28T02:27:29.667Z,78.40
2018-03-28T02:29:56.706Z,78.30
2018-03-28T02:32:23.774Z,77.90
2018-03-28T02:34:50.797Z,78.10
2018-03-28T02:37:17.818Z,78.20
2018-03-28T02:39:44.900Z,78.80
2018-03-28T02:42:11.973Z,77.80
2018-03-28T02:44:39.099Z,77.80
2018-03-28T02:47:06.127Z,77.30
2018-03-28T02:49:33.176Z,77.00
2018-03-28T02:52:00.226Z,77.40
2018-03-28T02:54:27.316Z,77.60
2018-03-28T02:56:54.351Z,77.20
2018-03-28T02:59:21.358Z,77.00
2018-03-28T03:01:48.346Z,76.90
2018-03-28T03:04:15.490Z,76.40
2018-03-28T03:06:42.505Z,76.40
2018-03-28T03:09:09.574Z,76.60
2018-03-28T03:11:36.694Z,76.40
2018-03-28T03:14:03.837Z,76.10
2018-03-28T03:16:30.880Z,75.40
2018-03-28T03:18:57.871Z,76.10
2018-03-28T03:21:24.911Z,76.10
2018-03-28T03:23:52.022Z,76.10
2018-03-28T03:26:19.038Z,76.50
2018-03-28T03:28:46.055Z,76.50
2018-03-28T03:31:13.074Z,77.10
2018-03-28T03:33:40.133Z,77.30
2018-03-28T03:36:07.892Z,76.20
2018-03-28T03:38:34.893Z,76.10
2018-03-28T03:41:01.949Z,75.30
2018-03-28T03:43:29.789Z,76.10
2018-03-28T03:45:56.789Z,76.10
2018-03-28T03:48:23.799Z,76.10
2018-03-28T03:50:50.838Z,76.20
2018-03-28T03:53:21.533Z,75.90
2018-03-28T03:55:48.546Z,75.60
2018-03-28T03:58:15.614Z,76.20
2018-03-28T04:00:43.357Z,76.60
2018-03-28T04:03:11.202Z,76.10
2018-03-28T04:05:38.933Z,76.10
2018-03-28T04:08:05.938Z,76.10
2018-03-28T04:10:32.966Z,76.20
2018-03-28T04:12:59.989Z,75.90
2018-03-28T04:15:27.863Z,76.30
2018-03-28T04:17:55.761Z,76.80
2018-03-28T04:20:22.762Z,76.80
2018-03-28T04:22:50.557Z,76.70
2018-03-28T04:25:17.690Z,76.40
2018-03-28T04:27:44.727Z,77.70
2018-03-28T04:30:11.897Z,76.30
2018-03-28T04:32:39.002Z,76.30
2018-03-28T04:35:06.098Z,76.50
2018-03-28T04:37:33.916Z,76.50
2018-03-28T04:40:00.912Z,76.40
2018-03-28T04:43:05.131Z,76.10
2018-03-28T04:51:35.983Z,75.80
2018-03-28T05:01:38.480Z,76.50
2018-03-28T05:04:10.338Z,78.10
2018-03-28T05:06:38.209Z,78.30
2018-03-28T05:09:05.354Z,78.10
2018-03-28T05:11:32.461Z,77.80
2018-03-28T05:14:00.321Z,77.10
2018-03-28T05:16:27.338Z,77.00
2018-03-28T05:18:56.329Z,76.40
2018-03-28T05:21:25.305Z,77.00
2018-03-28T05:23:53.158Z,76.60
2018-03-28T05:26:22.048Z,75.70
2018-03-28T05:28:49.319Z,75.60
2018-03-28T05:31:16.395Z,74.90
2018-03-28T05:33:44.518Z,75.60
2018-03-28T05:36:11.724Z,75.50
2018-03-28T05:38:39.622Z,75.10
2018-03-28T05:41:09.682Z,74.60
2018-03-28T05:51:44.939Z,75.00
2018-03-28T05:57:14.539Z,75.20
2018-03-28T05:59:52.700Z,74.80
2018-03-28T06:02:22.107Z,74.80
2018-03-28T06:04:56.078Z,75.30
2018-03-28T06:07:36.775Z,75.30
2018-03-28T06:10:18.237Z,74.50
2018-03-28T06:12:58.853Z,74.30
2018-03-28T06:15:55.372Z,74.30
2018-03-28T06:18:30.007Z,74.10
2018-03-28T06:21:12.987Z,73.90
2018-03-28T06:23:46.841Z,74.30
2018-03-28T06:26:13.900Z,74.20
2018-03-28T06:28:41.114Z,73.80
2018-03-28T06:31:08.342Z,74.10
2018-03-28T06:33:35.399Z,74.30
2018-03-28T06:36:03.230Z,73.20
2018-03-28T06:38:30.438Z,73.10
2018-03-28T06:40:57.466Z,74.00
2018-03-28T06:43:24.518Z,73.20
2018-03-28T06:45:51.550Z,74.20
2018-03-28T06:48:19.310Z,74.50
2018-03-28T06:50:46.349Z,74.50
2018-03-28T06:53:14.362Z,72.10
2018-03-28T06:55:41.430Z,72.10
2018-03-28T06:58:08.457Z,73.20
2018-03-28T07:00:35.501Z,73.40
2018-03-28T07:03:04.329Z,73.10
2018-03-28T07:05:31.557Z,73.10
2018-03-28T07:07:58.615Z,72.40
2018-03-28T07:10:25.817Z,72.60
2018-03-28T07:12:52.981Z,73.10
2018-03-28T07:15:56.316Z,74.40
2018-03-28T07:18:25.107Z,74.00
2018-03-28T07:20:55.020Z,73.90
2018-03-28T07:23:22.687Z,72.20
2018-03-28T07:25:51.422Z,70.90
2018-03-28T07:31:17.708Z,71.10
2018-03-28T07:33:46.627Z,73.70
2018-03-28T07:36:13.767Z,72.70
2018-03-28T07:38:42.175Z,71.70
2018-03-28T07:41:10.592Z,71.00
2018-03-28T07:43:43.368Z,69.70
2018-03-28T07:46:10.422Z,69.70
2018-03-28T07:48:37.444Z,69.80
2018-03-28T07:51:04.641Z,69.80
2018-03-28T07:53:31.652Z,69.70
2018-03-28T07:55:58.662Z,69.60
2018-03-28T07:58:25.693Z,69.80
2018-03-28T08:00:52.716Z,69.40
2018-03-28T08:03:19.747Z,69.50
2018-03-28T08:05:46.790Z,67.70
2018-03-28T08:08:14.538Z,66.40
2018-03-28T08:10:41.552Z,66.40
2018-03-28T08:13:08.606Z,66.40
2018-03-28T08:15:35.627Z,67.00
2018-03-28T08:18:02.654Z,68.70
2018-03-28T08:20:29.705Z,67.20
2018-03-28T08:22:56.721Z,68.10
2018-03-28T08:25:23.743Z,68.90
2018-03-28T08:27:50.778Z,66.50
2018-03-28T08:30:17.822Z,69.10
2018-03-28T08:32:44.832Z,68.20
2018-03-28T08:35:11.865Z,68.90
2018-03-28T08:37:38.893Z,67.20
2018-03-28T08:40:06.693Z,66.90
2018-03-28T08:42:33.685Z,66.90
2018-03-28T08:45:00.719Z,66.50
2018-03-28T08:47:27.756Z,66.70
2018-03-28T08:49:54.806Z,67.40
2018-03-28T08:52:21.834Z,66.70
2018-03-28T08:54:48.862Z,67.90
2018-03-28T08:57:15.905Z,67.10
2018-03-28T08:59:42.909Z,67.80
2018-03-28T09:02:10.674Z,70.10
2018-03-28T09:04:37.729Z,69.50
2018-03-28T09:07:04.779Z,68.20
2018-03-28T09:09:31.786Z,64.70
2018-03-28T09:11:59.049Z,63.10
2018-03-28T09:14:26.162Z,65.20
2018-03-28T09:16:53.906Z,62.60
2018-03-28T09:19:20.964Z,62.50
2018-03-28T09:21:48.153Z,64.80
2018-03-28T09:24:15.978Z,64.40
2018-03-28T09:26:43.199Z,64.50
2018-03-28T09:29:10.238Z,61.60
2018-03-28T09:31:37.510Z,61.20
2018-03-28T09:34:05.465Z,61.40
2018-03-28T09:36:32.548Z,61.20
2018-03-28T09:39:00.478Z,60.30
2018-03-28T09:41:27.601Z,60.20
2018-03-28T09:43:54.921Z,59.20
2018-03-28T09:46:21.986Z,61.10
2018-03-28T09:48:48.980Z,59.70
2018-03-28T09:51:16.055Z,57.80
2018-03-28T09:53:43.811Z,58.50
2018-03-28T09:56:10.861Z,58.50
2018-03-28T09:58:37.969Z,56.40
2018-03-28T10:01:08.061Z,57.40
2018-03-28T10:03:41.024Z,58.40
2018-03-28T10:06:08.007Z,56.50
2018-03-28T10:08:35.020Z,56.10
2018-03-28T10:11:02.114Z,54.80
2018-03-28T10:13:29.120Z,54.80
2018-03-28T10:15:56.132Z,54.50
2018-03-28T10:18:23.154Z,54.50
2018-03-28T10:20:50.166Z,54.70
2018-03-28T10:23:17.942Z,53.10
2018-03-28T10:25:44.978Z,53.10
2018-03-28T10:28:12.711Z,52.80
2018-03-28T10:30:39.736Z,52.70
2018-03-28T10:33:07.090Z,52.60
2018-03-28T10:35:34.157Z,53.90
2018-03-28T10:38:01.153Z,56.90
2018-03-28T10:40:28.244Z,55.30
2018-03-28T10:42:55.234Z,55.10
2018-03-28T10:45:22.473Z,53.40
2018-03-28T10:47:50.301Z,52.20
2018-03-28T10:50:17.626Z,52.10
2018-03-28T10:52:44.790Z,53.00
2018-03-28T10:55:12.559Z,52.40
2018-03-28T10:57:39.614Z,52.40
2018-03-28T11:00:06.666Z,51.80
2018-03-28T11:02:33.857Z,51.60
2018-03-28T11:05:00.899Z,50.30
2018-03-28T11:07:27.904Z,50.50
2018-03-28T11:09:55.248Z,50.40
2018-03-28T11:12:22.361Z,49.10
2018-03-28T11:14:49.420Z,49.30
2018-03-28T11:17:16.434Z,49.30
2018-03-28T11:19:43.487Z,49.50
2018-03-28T11:22:10.498Z,50.00
2018-03-28T11:24:37.534Z,51.30
2018-03-28T11:27:04.557Z,49.70
2018-03-28T11:29:31.565Z,49.30
2018-03-28T11:31:58.590Z,49.40
2018-03-28T11:34:25.606Z,48.00
2018-03-28T11:36:52.958Z,50.70
2018-03-28T11:39:21.098Z,48.00
2018-03-28T11:41:48.910Z,46.90
2018-03-28T11:44:16.663Z,47.20
2018-03-28T11:46:43.681Z,47.10
2018-03-28T11:49:10.707Z,46.40
2018-03-28T11:51:37.697Z,47.90
2018-03-28T11:54:04.798Z,44.80
2018-03-28T11:56:32.138Z,42.90
2018-03-28T11:58:59.490Z,43.80
2018-03-28T12:01:26.598Z,45.00
2018-03-28T12:03:53.733Z,45.00
2018-03-28T12:06:20.865Z,45.40
2018-03-28T12:08:47.893Z,45.90
2018-03-28T12:11:14.921Z,46.80
2018-03-28T12:13:42.674Z,48.70
2018-03-28T12:16:09.914Z,48.70
2018-03-28T12:18:36.977Z,44.70
2018-03-28T12:21:04.742Z,37.60
2018-03-28T12:23:31.769Z,37.50
2018-03-28T12:25:58.817Z,35.50
2018-03-28T12:28:26.828Z,33.30
2018-03-28T12:30:53.960Z,31.50
2018-03-28T12:33:21.030Z,31.60
2018-03-28T12:35:48.058Z,30.00
2018-03-28T12:38:15.050Z,28.90
2018-03-28T12:40:42.242Z,28.80
2018-03-28T12:43:09.257Z,29.30
2018-03-28T12:45:36.270Z,28.60
2018-03-28T12:48:03.326Z,28.40
2018-03-28T12:50:30.477Z,27.50
2018-03-28T12:52:57.509Z,26.90
2018-03-28T12:55:24.720Z,26.60
2018-03-28T12:57:52.374Z,26.20
2018-03-28T13:00:19.361Z,26.10
2018-03-28T13:02:47.130Z,26.00
2018-03-28T13:05:14.180Z,25.90
2018-03-28T13:07:41.181Z,25.30
2018-03-28T13:10:08.215Z,27.00
2018-03-28T13:12:35.256Z,25.50
2018-03-28T13:15:02.283Z,24.90
2018-03-28T13:17:29.327Z,26.90
2018-03-28T13:19:57.088Z,27.60
2018-03-28T13:22:24.041Z,27.60
2018-03-28T13:24:51.068Z,29.40
2018-03-28T13:27:18.830Z,31.80
2018-03-28T13:29:46.579Z,30.60
2018-03-28T13:32:14.345Z,31.30
2018-03-28T13:34:42.117Z,33.30
2018-03-28T13:37:09.126Z,33.20
2018-03-28T13:39:36.256Z,36.00
2018-03-28T13:42:03.270Z,36.10
2018-03-28T13:44:30.319Z,37.10
2018-03-28T13:46:57.358Z,37.50
2018-03-28T13:49:24.365Z,37.20
2018-03-28T13:51:51.416Z,37.50
2018-03-28T13:54:18.440Z,38.30
2018-03-28T13:56:45.476Z,40.40
2018-03-28T13:59:12.542Z,41.10
2018-03-28T14:01:39.561Z,41.30
2018-03-28T14:04:06.582Z,41.90
2018-03-28T14:06:33.623Z,41.20
2018-03-28T14:09:01.374Z,41.50
2018-03-28T14:11:28.355Z,41.40
2018-03-28T14:13:55.401Z,41.20
2018-03-28T14:16:22.833Z,41.10
2018-03-28T14:18:50.398Z,42.10
2018-03-28T14:21:18.186Z,42.60
2018-03-28T14:23:45.949Z,43.20
2018-03-28T14:26:12.963Z,43.20
2018-03-28T14:28:40.750Z,44.50
2018-03-28T14:31:07.758Z,44.40
2018-03-28T14:33:34.791Z,45.70
2018-03-28T14:36:01.815Z,46.40
2018-03-28T14:38:28.817Z,46.40
2018-03-28T14:40:55.850Z,47.30
2018-03-28T14:43:22.885Z,47.40
2018-03-28T14:45:49.916Z,47.50
2018-03-28T14:48:16.954Z,49.30
2018-03-28T14:50:43.974Z,49.50
2018-03-28T14:53:11.709Z,47.60
2018-03-28T14:55:38.752Z,47.50
2018-03-28T14:58:05.820Z,47.80
2018-03-28T15:00:32.849Z,49.10
2018-03-28T15:02:59.885Z,49.40
2018-03-28T15:05:26.898Z,49.20
2018-03-28T15:07:53.945Z,49.90
2018-03-28T15:10:21.698Z,49.70
2018-03-28T15:12:48.737Z,49.70
2018-03-28T15:15:15.814Z,49.20
2018-03-28T15:17:42.877Z,49.50
2018-03-28T15:20:09.918Z,50.20
2018-03-28T15:22:36.993Z,50.90
2018-03-28T15:25:04.066Z,51.10
2018-03-28T15:27:31.044Z,52.50
2018-03-28T15:29:58.098Z,52.10
2018-03-28T15:32:25.140Z,51.80
2018-03-28T15:34:52.329Z,51.90
2018-03-28T15:37:19.325Z,52.70
2018-03-28T15:39:46.341Z,51.70
2018-03-28T15:42:14.142Z,54.00
2018-03-28T15:44:41.203Z,54.00
2018-03-28T15:47:08.213Z,53.60
2018-03-28T15:49:35.981Z,55.20
2018-03-28T15:52:03.003Z,55.10
2018-03-28T15:54:30.026Z,54.50
2018-03-28T15:56:57.246Z,55.20
2018-03-28T15:59:25.056Z,55.90
2018-03-28T16:01:52.129Z,55.90
2018-03-28T16:04:19.161Z,56.40
2018-03-28T16:06:46.196Z,56.50
2018-03-28T16:09:13.272Z,56.80
2018-03-28T16:11:41.491Z,56.40
2018-03-28T16:14:09.477Z,56.90
2018-03-28T16:16:36.476Z,56.90
2018-03-28T16:19:03.782Z,57.10
2018-03-28T16:21:31.022Z,56.90
2018-03-28T16:23:58.108Z,56.70
2018-03-28T16:26:26.205Z,56.40
2018-03-28T16:28:53.577Z,56.30
2018-03-28T16:31:20.797Z,56.20
2018-03-28T16:33:47.849Z,56.70
2018-03-28T16:36:15.087Z,56.70
2018-03-28T16:38:42.246Z,56.40
2018-03-28T16:41:10.075Z,56.90
2018-03-28T16:43:37.199Z,56.90
2018-03-28T16:46:04.429Z,57.50
2018-03-28T16:48:31.556Z,57.70
2018-03-28T16:50:59.328Z,57.80
2018-03-28T16:53:26.620Z,57.80
2018-03-28T16:55:53.693Z,57.70
2018-03-28T16:58:21.465Z,57.50
2018-03-28T17:00:48.622Z,57.50
2018-03-28T17:03:15.895Z,58.00
2018-03-28T17:05:43.040Z,58.40
2018-03-28T17:08:10.125Z,58.90
2018-03-28T17:10:37.276Z,58.70
2018-03-28T17:13:04.372Z,58.90
2018-03-28T17:15:31.499Z,59.10
2018-03-28T17:17:58.556Z,59.30
2018-03-28T17:20:26.598Z,59.70
2018-03-28T17:22:53.626Z,59.70
2018-03-28T17:25:21.389Z,60.50
2018-03-28T17:27:48.445Z,60.50
2018-03-28T17:30:15.465Z,60.60
2018-03-28T17:32:43.404Z,62.40
2018-03-28T17:35:11.212Z,62.30
2018-03-28T17:37:38.714Z,62.30
2018-03-28T17:40:05.778Z,62.30
2018-03-28T17:42:33.562Z,62.20
2018-03-28T17:45:01.321Z,62.70
2018-03-28T17:47:29.149Z,63.10
2018-03-28T17:49:56.152Z,62.90
2018-03-28T17:52:23.168Z,63.60
2018-03-28T17:54:50.221Z,63.60
2018-03-28T17:57:18.005Z,63.30
2018-03-28T17:59:45.982Z,63.20
2018-03-28T18:02:13.237Z,63.20
2018-03-28T18:04:41.027Z,63.80
2018-03-28T18:07:08.022Z,63.80
2018-03-28T18:09:35.288Z,63.70
2018-03-28T18:12:02.390Z,64.00
2018-03-28T18:14:29.469Z,64.10
2018-03-28T18:16:57.225Z,64.20
2018-03-28T18:19:24.243Z,64.20
2018-03-28T18:21:51.514Z,64.30
2018-03-28T18:24:18.866Z,64.20
2018-03-28T18:26:45.971Z,64.20
2018-03-28T18:29:13.110Z,64.60
2018-03-28T18:31:40.165Z,64.60
2018-03-28T18:34:07.183Z,64.80
2018-03-28T18:36:34.979Z,65.30
2018-03-28T18:39:02.074Z,65.20
2018-03-28T18:41:29.318Z,65.20
2018-03-28T18:43:56.403Z,65.20
2018-03-28T18:46:23.618Z,65.50
2018-03-28T18:48:50.793Z,66.00
2018-03-28T18:51:18.021Z,66.10
2018-03-28T18:53:45.361Z,66.20
2018-03-28T18:56:12.358Z,66.50
2018-03-28T18:58:39.365Z,66.40
2018-03-28T19:01:06.591Z,65.90
2018-03-28T19:03:34.337Z,65.80
2018-03-28T19:06:02.378Z,65.80
2018-03-28T19:08:29.409Z,65.90
2018-03-28T19:10:56.443Z,66.10
2018-03-28T19:13:23.509Z,66.10
2018-03-28T19:15:50.786Z,68.70
2018-03-28T19:18:17.838Z,67.80
2018-03-28T19:20:45.645Z,67.80
2018-03-28T19:23:12.646Z,67.80
2018-03-28T19:25:39.654Z,68.20
2018-03-28T19:28:07.399Z,68.70
2018-03-28T19:30:34.425Z,68.60
2018-03-28T19:33:02.206Z,68.80
2018-03-28T19:35:29.243Z,68.80
2018-03-28T19:37:57.126Z,69.10
2018-03-28T19:40:24.545Z,69.10
2018-03-28T19:42:51.641Z,69.50
2018-03-28T19:45:18.697Z,69.60
2018-03-28T19:47:45.735Z,69.70
2018-03-28T19:50:12.773Z,70.10
2018-03-28T19:52:39.810Z,70.00
2018-03-28T19:55:09.322Z,69.20
2018-03-28T19:57:37.354Z,69.60
2018-03-28T20:00:04.846Z,69.50
2018-03-28T20:02:31.955Z,69.30
2018-03-28T20:04:59.034Z,69.50
2018-03-28T20:07:27.094Z,69.50
2018-03-28T20:09:54.207Z,69.40
2018-03-28T20:12:21.275Z,69.60
2018-03-28T20:14:48.353Z,69.90
2018-03-28T20:17:16.137Z,69.60
2018-03-28T20:19:43.867Z,69.40
2018-03-28T20:22:11.523Z,69.40
2018-03-28T20:24:39.608Z,69.30
2018-03-28T20:27:06.637Z,69.40
2018-03-28T20:29:33.797Z,70.40
2018-03-28T20:32:00.964Z,69.80
2018-03-28T20:34:28.149Z,70.10
2018-03-28T20:36:55.190Z,70.20
2018-03-28T20:39:22.241Z,69.80
2018-03-28T20:41:49.469Z,69.70
2018-03-28T20:44:17.301Z,70.40
2018-03-28T20:46:44.315Z,70.40
2018-03-28T20:49:11.332Z,70.70
2018-03-28T20:51:38.794Z,70.80
2018-03-28T20:54:05.998Z,71.00
2018-03-28T20:56:33.013Z,70.80
2018-03-28T20:59:00.051Z,70.80
2018-03-28T21:01:27.141Z,70.40
2018-03-28T21:03:54.257Z,70.50
2018-03-28T21:06:21.334Z,70.20
2018-03-28T21:08:48.333Z,70.50
2018-03-28T21:11:15.426Z,70.50
2018-03-28T21:13:42.913Z,70.30
2018-03-28T21:16:10.233Z,70.10
2018-03-28T21:18:37.273Z,70.10
2018-03-28T21:21:04.265Z,70.10
2018-03-28T21:23:32.018Z,70.20
2018-03-28T21:25:59.047Z,70.20
2018-03-28T21:28:26.061Z,70.50
2018-03-28T21:30:53.094Z,71.10
2018-03-28T21:33:20.133Z,71.10
2018-03-28T21:35:47.150Z,71.30
2018-03-28T21:38:14.148Z,71.50
2018-03-28T21:40:41.182Z,71.70
2018-03-28T21:43:08.186Z,71.00
2018-03-28T21:45:35.946Z,71.20
2018-03-28T21:48:03.063Z,71.10
2018-03-28T21:50:30.093Z,72.00
2018-03-28T21:52:57.121Z,70.80
2018-03-28T21:55:24.187Z,70.70
2018-03-28T21:57:51.184Z,71.20
2018-03-28T22:00:18.991Z,71.10
2018-03-28T22:02:46.014Z,71.00
2018-03-28T22:05:13.777Z,71.40
2018-03-28T22:07:41.550Z,71.20
2018-03-28T22:10:08.865Z,71.20
2018-03-28T22:12:35.930Z,70.90
2018-03-28T22:15:03.023Z,71.20
2018-03-28T22:17:30.069Z,71.30
2018-03-28T22:19:57.073Z,71.30
2018-03-28T22:22:24.114Z,71.60
2018-03-28T22:24:51.345Z,72.00
2018-03-28T22:27:18.513Z,72.20
2018-03-28T22:29:45.541Z,72.00
2018-03-28T22:32:12.605Z,72.00
2018-03-28T22:34:40.402Z,71.50
2018-03-28T22:37:08.149Z,71.60
2018-03-28T22:39:35.177Z,71.60
2018-03-28T22:42:02.222Z,72.30
2018-03-28T22:44:29.234Z,72.20
2018-03-28T22:46:56.245Z,72.20
2018-03-28T22:49:24.014Z,71.80
2018-03-28T22:51:51.795Z,72.40
2018-03-28T22:54:18.867Z,72.40
2018-03-28T22:56:45.893Z,72.70
2018-03-28T22:59:13.625Z,72.50
2018-03-28T23:01:40.647Z,72.50
2018-03-28T23:04:07.682Z,72.70
2018-03-28T23:06:34.661Z,72.30
2018-03-28T23:09:01.720Z,71.90
2018-03-28T23:11:29.470Z,72.70
2018-03-28T23:13:57.240Z,72.70
2018-03-28T23:16:24.287Z,72.70
2018-03-28T23:18:51.282Z,72.70
2018-03-28T23:21:18.284Z,72.50
2018-03-28T23:23:46.063Z,72.10
2018-03-28T23:26:13.065Z,72.00
2018-03-28T23:28:40.069Z,72.60
2018-03-28T23:31:07.081Z,72.60
2018-03-28T23:33:34.108Z,72.60
2018-03-28T23:36:01.140Z,72.60
2018-03-28T23:38:28.124Z,72.60
2018-03-28T23:40:55.144Z,72.50
2018-03-28T23:43:22.183Z,72.70
2018-03-28T23:45:49.221Z,72.60
2018-03-28T23:48:16.232Z,72.70
2018-03-28T23:50:44.020Z,73.00
2018-03-28T23:53:11.041Z,73.00
2018-03-28T23:55:38.052Z,73.30
2018-03-28T23:58:05.085Z,72.60
